Wednesday, July 23, 2014
07:56 UTC
  |  Log In   |  Register Free
Airport Search:

Yellowstone Regional Airport
(KCOD)

Yellowstone Regional Airport Diagram
No Airport Diagram Available

FAA data valid effective May 29, 2014 until July 24, 2014 (unless otherwise noted).

 
 
 
 
 
 
 
 
 
 
 
 
 
 

Current Aviation Weather for Yellowstone Regional Airport (KCOD)

The most recent METAR observation for KCOD was updated at: 0635 UTC
METAR Summary (Translated METAR)
KCOD
230635Z 01004KT 10SM CLR 18/07 A3030 RMK AO1
KGEY
(40.3 nm SE from KCOD)
230553Z AUTO 29013KT 10SM CLR 23/10 A3016 RMK AO2 SLP165 T02330100 10361 20233 51019
TAF Summary (Translated TAF)
KCOD
230524Z 2306/2406 VRB06KT P6SM SKC FM231600 13007KT P6SM FEW120 SCT200 FM240100 20007KT P6SM SCT200 AMD LTD TO CLD VIS AND WIND
  Airport Weather Conditions for KCOD

 Current Weather at COD
64° F
Fair
North winds at 3.5 mph
COD NOAA Radar

Pressure: 30.30 in
Humidity: 49%
Wind: North at 3.5 MPH (3 KT)
Dew Point: 44.6°F
Visibility: 10.00 mi


Airport Weather Forecast for KCOD

Translated METAR and TAF for KCOD
Translated METAR for KCOD (0749 UTC 23 July 2014)
found at http://aviationweather.gov/adds/metars/
 
METAR text: KCOD 230735Z 31004KT 10SM CLR 19/07 A3028 RMK AO1
Conditions at: KCOD (CODY , WY, US) observed 0735 UTC 23 July 2014
Temperature: 19.0°C (66°F)
Dewpoint: 7.0°C (45°F) [RH = 46%]
Pressure (altimeter): 30.28 inches Hg (1025.5 mb)
Winds: from the NW (310 degrees) at 5 MPH (4 knots; 2.1 m/s)
Visibility: 10 or more miles (16+ km)
Ceiling: at least 12,000 feet AGL
Clouds: sky clear below 12,000 feet AGL
Weather: no significant weather observed at this time
Translated TAF for KCOD
Forecast for: KCOD (CODY , WY, US)
TAF Text: KCOD 230524Z 2306/2406 VRB06KT P6SM SKC
Forecast period: 0600 to 1600 UTC 23 July 2014
Forecast type: FROM: standard forecast or significant change
Winds: variable direction winds at 7 MPH (6 knots; 3.1 m/s)
Visibility: 6 or more miles (10+ km)
Clouds: clear skies
Weather: no significant weather forecast for this period
TAF Text: FM231600 13007KT P6SM FEW120 SCT200
Forecast period: 1600 UTC 23 July 2014 to 0100 UTC 24 July 2014
Forecast type: FROM: standard forecast or significant change
Winds: from the SE (130 degrees) at 8 MPH (7 knots; 3.6 m/s)
Visibility: 6 or more miles (10+ km)
Clouds: few clouds at 12000 feet AGL
scattered clouds at 20000 feet AGL
Weather: no significant weather forecast for this period
TAF Text: FM240100 20007KT P6SM SCT200 AMD LTD TO CLD VIS AND WIND
Forecast period: 0100 to 0600 UTC 24 July 2014
Forecast type: FROM: standard forecast or significant change
Winds: from the SSW (200 degrees) at 8 MPH (7 knots; 3.6 m/s)
Visibility: 6 or more miles (10+ km)
Clouds: scattered clouds at 20000 feet AGL
Weather: no significant weather forecast for this period

Find All Airport Services Find A Hotel Find A Rental Car Find A Golf Course Find A Restaurant $100 Hamburger



FBO's on the Field
FBO Company Facility Photos Services Transportation Aviation Fuel Prices: Prices include tax
Catering Weather Repair Courtesy Rental Type 100LL JetA JetA+ MOGAS 8087
 
Choice Aviation, LLC

This FBO has not yet been rated
FS:Avfuel
Last Updated: Jul-18
Login to update fuel prices
SS:
Contact Choice Aviation, LLCMore FBO Information
 
Add another FBO Facility Photos Catering Weather Repair Courtesy Rental Type 100LL JetA JetA+ MOGAS 8087
Services Transportation Aviation Fuel Prices: Prices include tax


GlobalAir.com Airport Resource Center model-print
model-print
model-print
model-print